sensor_id;sensor_type;location;lat;lon;timestamp;pressure;altitude;pressure_sealevel;temperature;humidity
19783;BME280;10051;40.294;-3.754;2023-08-24T00:01:56;94179.16;;;30.58;19.95
19783;BME280;10051;40.294;-3.754;2023-08-24T00:04:23;94202.31;;;30.66;19.80
19783;BME280;10051;40.294;-3.754;2023-08-24T00:06:49;94194.66;;;30.57;19.48
19783;BME280;10051;40.294;-3.754;2023-08-24T00:09:16;94188.47;;;30.53;19.92
19783;BME280;10051;40.294;-3.754;2023-08-24T00:11:51;94189.09;;;30.33;19.84
19783;BME280;10051;40.294;-3.754;2023-08-24T00:14:27;94195.66;;;30.36;19.94
19783;BME280;10051;40.294;-3.754;2023-08-24T00:17:03;94160.44;;;29.97;20.37
19783;BME280;10051;40.294;-3.754;2023-08-24T00:19:32;94195.09;;;30.17;20.53
19783;BME280;10051;40.294;-3.754;2023-08-24T00:22:02;94152.06;;;29.81;20.50
19783;BME280;10051;40.294;-3.754;2023-08-24T00:24:48;94194.50;;;29.99;20.65
19783;BME280;10051;40.294;-3.754;2023-08-24T00:27:17;94188.38;;;29.91;20.95
19783;BME280;10051;40.294;-3.754;2023-08-24T00:29:58;94171.59;;;29.65;21.11
19783;BME280;10051;40.294;-3.754;2023-08-24T00:32:24;94188.56;;;29.69;21.05
19783;BME280;10051;40.294;-3.754;2023-08-24T00:34:53;94179.38;;;29.59;21.08
19783;BME280;10051;40.294;-3.754;2023-08-24T00:40:11;94186.72;;;29.62;20.92
19783;BME280;10051;40.294;-3.754;2023-08-24T00:43:07;94142.44;;;29.38;20.84
19783;BME280;10051;40.294;-3.754;2023-08-24T00:46:09;94173.16;;;29.62;20.98
19783;BME280;10051;40.294;-3.754;2023-08-24T00:48:45;94174.28;;;29.68;21.06
19783;BME280;10051;40.294;-3.754;2023-08-24T00:51:12;94176.56;;;29.74;20.87
19783;BME280;10051;40.294;-3.754;2023-08-24T00:53:41;94180.44;;;29.69;20.93
19783;BME280;10051;40.294;-3.754;2023-08-24T00:56:22;94178.53;;;29.70;21.00
19783;BME280;10051;40.294;-3.754;2023-08-24T00:58:54;94176.25;;;29.64;20.99
19783;BME280;10051;40.294;-3.754;2023-08-24T01:01:32;94179.44;;;29.56;21.02
19783;BME280;10051;40.294;-3.754;2023-08-24T01:04:04;94177.84;;;29.58;20.84
19783;BME280;10051;40.294;-3.754;2023-08-24T01:06:56;94180.94;;;29.60;21.35
19783;BME280;10051;40.294;-3.754;2023-08-24T01:09:39;94169.41;;;29.52;21.32
19783;BME280;10051;40.294;-3.754;2023-08-24T01:15:18;94170.94;;;29.50;21.54
19783;BME280;10051;40.294;-3.754;2023-08-24T01:17:59;94159.13;;;29.26;21.64
19783;BME280;10051;40.294;-3.754;2023-08-24T01:20:27;94156.47;;;29.22;22.25
19783;BME280;10051;40.294;-3.754;2023-08-24T01:23:32;94170.31;;;29.31;22.01
19783;BME280;10051;40.294;-3.754;2023-08-24T01:28:37;94163.00;;;29.28;22.01
19783;BME280;10051;40.294;-3.754;2023-08-24T01:31:06;94163.53;;;29.08;22.13
19783;BME280;10051;40.294;-3.754;2023-08-24T01:33:41;94154.28;;;29.02;22.24
19783;BME280;10051;40.294;-3.754;2023-08-24T01:36:14;94154.97;;;29.14;22.35
19783;BME280;10051;40.294;-3.754;2023-08-24T01:38:58;94159.56;;;29.20;22.61
19783;BME280;10051;40.294;-3.754;2023-08-24T01:41:28;94151.44;;;29.24;22.58
19783;BME280;10051;40.294;-3.754;2023-08-24T01:44:09;94150.38;;;29.11;22.38
19783;BME280;10051;40.294;-3.754;2023-08-24T01:46:47;94144.56;;;29.12;23.05
19783;BME280;10051;40.294;-3.754;2023-08-24T01:49:18;94071.13;;;28.57;22.93
19783;BME280;10051;40.294;-3.754;2023-08-24T01:51:46;94172.22;;;29.38;22.41
19783;BME280;10051;40.294;-3.754;2023-08-24T01:54:13;94163.25;;;29.45;22.29
19783;BME280;10051;40.294;-3.754;2023-08-24T01:56:50;94176.75;;;29.52;22.39
19783;BME280;10051;40.294;-3.754;2023-08-24T01:59:17;94159.44;;;29.42;22.30
19783;BME280;10051;40.294;-3.754;2023-08-24T02:01:52;94162.50;;;29.44;22.41
19783;BME280;10051;40.294;-3.754;2023-08-24T02:04:18;94163.56;;;29.58;22.25
19783;BME280;10051;40.294;-3.754;2023-08-24T02:06:48;94173.06;;;29.73;22.23
19783;BME280;10051;40.294;-3.754;2023-08-24T02:09:21;94166.59;;;29.60;22.32
19783;BME280;10051;40.294;-3.754;2023-08-24T02:11:56;94157.22;;;29.26;22.79
19783;BME280;10051;40.294;-3.754;2023-08-24T02:14:34;94174.69;;;29.18;22.96
19783;BME280;10051;40.294;-3.754;2023-08-24T02:17:03;94156.63;;;29.04;22.86
19783;BME280;10051;40.294;-3.754;2023-08-24T02:19:32;94147.72;;;29.03;23.17
19783;BME280;10051;40.294;-3.754;2023-08-24T02:21:59;94174.31;;;29.16;23.32
19783;BME280;10051;40.294;-3.754;2023-08-24T02:24:36;94163.50;;;29.12;23.13
19783;BME280;10051;40.294;-3.754;2023-08-24T02:27:05;94166.88;;;29.23;23.50
19783;BME280;10051;40.294;-3.754;2023-08-24T02:29:32;94172.56;;;29.44;23.41
19783;BME280;10051;40.294;-3.754;2023-08-24T02:38:08;94166.28;;;29.54;23.25
19783;BME280;10051;40.294;-3.754;2023-08-24T02:40:46;94150.75;;;29.58;23.12
19783;BME280;10051;40.294;-3.754;2023-08-24T02:43:21;94168.38;;;29.77;23.26
19783;BME280;10051;40.294;-3.754;2023-08-24T02:46:11;94163.88;;;29.63;23.56
19783;BME280;10051;40.294;-3.754;2023-08-24T02:48:44;94173.97;;;29.59;23.78
19783;BME280;10051;40.294;-3.754;2023-08-24T02:51:11;94141.56;;;29.48;23.75
19783;BME280;10051;40.294;-3.754;2023-08-24T02:53:41;94149.34;;;29.43;24.15
19783;BME280;10051;40.294;-3.754;2023-08-24T02:59:40;94140.50;;;29.35;24.92
19783;BME280;10051;40.294;-3.754;2023-08-24T03:02:24;94141.88;;;29.12;25.21
19783;BME280;10051;40.294;-3.754;2023-08-24T03:04:52;94111.19;;;28.73;25.03
19783;BME280;10051;40.294;-3.754;2023-08-24T03:07:20;94168.69;;;28.92;25.36
19783;BME280;10051;40.294;-3.754;2023-08-24T03:09:56;94168.28;;;28.93;25.33
19783;BME280;10051;40.294;-3.754;2023-08-24T03:12:25;94165.59;;;28.90;25.48
19783;BME280;10051;40.294;-3.754;2023-08-24T03:15:03;94160.56;;;28.92;25.32
19783;BME280;10051;40.294;-3.754;2023-08-24T03:17:47;94154.16;;;29.20;25.31
19783;BME280;10051;40.294;-3.754;2023-08-24T03:20:43;94163.91;;;29.11;25.59
19783;BME280;10051;40.294;-3.754;2023-08-24T03:23:29;94171.97;;;29.18;25.78
19783;BME280;10051;40.294;-3.754;2023-08-24T03:25:59;94156.47;;;29.22;25.16
19783;BME280;10051;40.294;-3.754;2023-08-24T03:28:28;94129.78;;;29.20;25.04
19783;BME280;10051;40.294;-3.754;2023-08-24T03:30:55;94157.84;;;29.45;25.00
19783;BME280;10051;40.294;-3.754;2023-08-24T03:33:24;94163.19;;;29.52;25.31
19783;BME280;10051;40.294;-3.754;2023-08-24T03:36:00;94162.41;;;29.55;25.12
19783;BME280;10051;40.294;-3.754;2023-08-24T03:38:27;94153.34;;;29.27;25.59
19783;BME280;10051;40.294;-3.754;2023-08-24T03:41:13;94157.53;;;29.32;25.44
19783;BME280;10051;40.294;-3.754;2023-08-24T03:43:40;94154.28;;;29.02;26.12
19783;BME280;10051;40.294;-3.754;2023-08-24T03:46:10;94155.97;;;28.85;26.28
19783;BME280;10051;40.294;-3.754;2023-08-24T03:49:21;94140.47;;;28.89;26.00
19783;BME280;10051;40.294;-3.754;2023-08-24T03:51:26;94148.31;;;28.69;26.44
19783;BME280;10051;40.294;-3.754;2023-08-24T03:53:53;94146.75;;;28.68;26.15
19783;BME280;10051;40.294;-3.754;2023-08-24T03:56:36;94142.16;;;28.65;26.53
19783;BME280;10051;40.294;-3.754;2023-08-24T03:59:21;94155.25;;;28.70;26.16
19783;BME280;10051;40.294;-3.754;2023-08-24T04:01:53;94151.78;;;28.66;26.14
19783;BME280;10051;40.294;-3.754;2023-08-24T04:04:33;94157.16;;;28.73;26.45
19783;BME280;10051;40.294;-3.754;2023-08-24T04:07:13;94158.69;;;28.78;26.24
19783;BME280;10051;40.294;-3.754;2023-08-24T04:09:40;94158.28;;;28.83;26.39
19783;BME280;10051;40.294;-3.754;2023-08-24T04:12:18;94163.19;;;28.99;25.96
19783;BME280;10051;40.294;-3.754;2023-08-24T04:14:47;94157.16;;;28.73;26.41
19783;BME280;10051;40.294;-3.754;2023-08-24T04:17:43;94158.88;;;28.42;27.16
19783;BME280;10051;40.294;-3.754;2023-08-24T04:20:11;94153.91;;;28.29;27.16
19783;BME280;10051;40.294;-3.754;2023-08-24T04:22:40;94150.78;;;28.38;26.97
19783;BME280;10051;40.294;-3.754;2023-08-24T04:25:13;94160.06;;;28.37;27.05
19783;BME280;10051;40.294;-3.754;2023-08-24T04:27:55;94174.00;;;28.25;27.52
19783;BME280;10051;40.294;-3.754;2023-08-24T04:30:36;94147.06;;;27.99;27.20
19783;BME280;10051;40.294;-3.754;2023-08-24T04:33:08;94156.28;;;28.09;27.41
19783;BME280;10051;40.294;-3.754;2023-08-24T04:35:46;94170.97;;;28.19;27.23
19783;BME280;10051;40.294;-3.754;2023-08-24T04:38:25;94133.13;;;28.15;27.10
19783;BME280;10051;40.294;-3.754;2023-08-24T04:40:53;94179.34;;;28.46;27.14
19783;BME280;10051;40.294;-3.754;2023-08-24T04:43:21;94186.34;;;28.33;27.45
19783;BME280;10051;40.294;-3.754;2023-08-24T04:45:52;94169.84;;;27.91;27.71
19783;BME280;10051;40.294;-3.754;2023-08-24T04:48:24;94125.19;;;27.32;28.57
19783;BME280;10051;40.294;-3.754;2023-08-24T04:51:02;94193.81;;;27.82;28.36
19783;BME280;10051;40.294;-3.754;2023-08-24T04:53:32;94172.59;;;27.62;28.13
19783;BME280;10051;40.294;-3.754;2023-08-24T04:56:19;94187.22;;;27.83;27.96
19783;BME280;10051;40.294;-3.754;2023-08-24T04:58:58;94192.22;;;27.95;27.91
19783;BME280;10051;40.294;-3.754;2023-08-24T05:01:29;94181.75;;;28.08;27.47
19783;BME280;10051;40.294;-3.754;2023-08-24T05:04:00;94182.91;;;28.14;27.53
19783;BME280;10051;40.294;-3.754;2023-08-24T05:06:26;94197.94;;;28.30;27.43
19783;BME280;10051;40.294;-3.754;2023-08-24T05:09:01;94201.03;;;28.32;27.03
19783;BME280;10051;40.294;-3.754;2023-08-24T05:11:36;94189.44;;;28.35;26.96
19783;BME280;10051;40.294;-3.754;2023-08-24T05:14:30;94201.69;;;28.50;26.87
19783;BME280;10051;40.294;-3.754;2023-08-24T05:20:12;94197.97;;;28.15;27.64
19783;BME280;10051;40.294;-3.754;2023-08-24T05:22:49;94201.03;;;28.25;27.41
19783;BME280;10051;40.294;-3.754;2023-08-24T05:25:22;94188.03;;;27.80;28.22
19783;BME280;10051;40.294;-3.754;2023-08-24T05:27:51;94211.94;;;27.74;28.60
19783;BME280;10051;40.294;-3.754;2023-08-24T05:30:18;94201.13;;;27.88;27.80
19783;BME280;10051;40.294;-3.754;2023-08-24T05:32:47;94197.25;;;27.97;28.02
19783;BME280;10051;40.294;-3.754;2023-08-24T05:35:13;94174.09;;;27.88;27.62
19783;BME280;10051;40.294;-3.754;2023-08-24T05:37:48;94208.44;;;27.92;28.38
19783;BME280;10051;40.294;-3.754;2023-08-24T05:40:26;94166.84;;;27.49;28.50
19783;BME280;10051;40.294;-3.754;2023-08-24T05:42:53;94196.94;;;27.58;28.58
19783;BME280;10051;40.294;-3.754;2023-08-24T05:45:26;94207.69;;;27.87;28.30
19783;BME280;10051;40.294;-3.754;2023-08-24T05:48:02;94213.47;;;27.89;28.18
19783;BME280;10051;40.294;-3.754;2023-08-24T05:50:35;94209.56;;;28.12;27.69
19783;BME280;10051;40.294;-3.754;2023-08-24T05:53:33;94199.53;;;28.16;27.85
19783;BME280;10051;40.294;-3.754;2023-08-24T05:56:09;94192.56;;;28.15;27.78
19783;BME280;10051;40.294;-3.754;2023-08-24T05:58:48;94211.47;;;28.23;27.75
19783;BME280;10051;40.294;-3.754;2023-08-24T06:01:45;94205.69;;;28.06;28.09
19783;BME280;10051;40.294;-3.754;2023-08-24T06:04:38;94208.84;;;27.79;28.90
19783;BME280;10051;40.294;-3.754;2023-08-24T06:07:07;94206.53;;;27.74;28.69
19783;BME280;10051;40.294;-3.754;2023-08-24T06:09:42;94189.56;;;27.41;29.25
19783;BME280;10051;40.294;-3.754;2023-08-24T06:12:14;94207.28;;;27.38;29.25
19783;BME280;10051;40.294;-3.754;2023-08-24T06:14:43;94168.00;;;27.12;29.60
19783;BME280;10051;40.294;-3.754;2023-08-24T06:17:24;94209.59;;;27.43;29.31
19783;BME280;10051;40.294;-3.754;2023-08-24T06:19:54;94213.47;;;27.39;29.39
19783;BME280;10051;40.294;-3.754;2023-08-24T06:22:20;94172.22;;;27.06;29.37
19783;BME280;10051;40.294;-3.754;2023-08-24T06:24:59;94223.13;;;27.29;29.07
19783;BME280;10051;40.294;-3.754;2023-08-24T06:27:26;94219.25;;;27.15;30.02
19783;BME280;10051;40.294;-3.754;2023-08-24T06:29:56;94204.97;;;27.11;29.78
19783;BME280;10051;40.294;-3.754;2023-08-24T06:32:42;94223.50;;;27.27;29.58
19783;BME280;10051;40.294;-3.754;2023-08-24T06:35:14;94225.41;;;27.23;29.73
19783;BME280;10051;40.294;-3.754;2023-08-24T06:37:42;94223.09;;;27.22;29.58
19783;BME280;10051;40.294;-3.754;2023-08-24T06:40:10;94205.75;;;27.19;29.34
19783;BME280;10051;40.294;-3.754;2023-08-24T06:42:42;94197.28;;;27.10;29.91
19783;BME280;10051;40.294;-3.754;2023-08-24T06:45:08;94222.72;;;27.30;30.07
19783;BME280;10051;40.294;-3.754;2023-08-24T06:47:36;94220.81;;;27.35;29.93
19783;BME280;10051;40.294;-3.754;2023-08-24T06:50:02;94223.94;;;27.51;30.03
19783;BME280;10051;40.294;-3.754;2023-08-24T06:52:31;94212.72;;;27.53;29.76
19783;BME280;10051;40.294;-3.754;2023-08-24T06:54:57;94226.22;;;27.64;29.24
19783;BME280;10051;40.294;-3.754;2023-08-24T06:57:24;94232.34;;;27.93;29.70
19783;BME280;10051;40.294;-3.754;2023-08-24T06:59:52;94207.25;;;27.96;28.86
19783;BME280;10051;40.294;-3.754;2023-08-24T07:02:21;94228.47;;;28.12;28.51
19783;BME280;10051;40.294;-3.754;2023-08-24T07:04:48;94240.00;;;28.38;28.20
19783;BME280;10051;40.294;-3.754;2023-08-24T07:07:17;94238.78;;;28.57;28.37
19783;BME280;10051;40.294;-3.754;2023-08-24T07:10:08;94239.91;;;28.60;27.94
19783;BME280;10051;40.294;-3.754;2023-08-24T07:12:39;94232.63;;;28.46;28.37
19783;BME280;10051;40.294;-3.754;2023-08-24T07:15:10;94232.59;;;28.49;28.18
19783;BME280;10051;40.294;-3.754;2023-08-24T07:17:42;94225.56;;;28.70;28.61
19783;BME280;10051;40.294;-3.754;2023-08-24T07:20:09;94222.38;;;28.93;28.29
19783;BME280;10051;40.294;-3.754;2023-08-24T07:22:35;94229.59;;;29.15;27.98
19783;BME280;10051;40.294;-3.754;2023-08-24T07:25:01;94226.91;;;29.15;27.34
19783;BME280;10051;40.294;-3.754;2023-08-24T07:27:34;94233.03;;;29.22;27.29
19783;BME280;10051;40.294;-3.754;2023-08-24T07:30:03;94211.03;;;29.17;27.66
19783;BME280;10051;40.294;-3.754;2023-08-24T07:32:32;94234.84;;;29.36;27.02
19783;BME280;10051;40.294;-3.754;2023-08-24T07:35:19;94236.44;;;29.34;27.51
19783;BME280;10051;40.294;-3.754;2023-08-24T07:37:53;94229.13;;;29.27;27.20
19783;BME280;10051;40.294;-3.754;2023-08-24T07:40:24;94234.53;;;29.31;27.43
19783;BME280;10051;40.294;-3.754;2023-08-24T07:42:57;94229.94;;;29.24;27.42
19783;BME280;10051;40.294;-3.754;2023-08-24T07:45:23;94231.09;;;29.23;27.12
19783;BME280;10051;40.294;-3.754;2023-08-24T07:47:50;94248.75;;;29.46;26.95
19783;BME280;10051;40.294;-3.754;2023-08-24T07:50:16;94249.28;;;29.79;27.38
19783;BME280;10051;40.294;-3.754;2023-08-24T07:52:45;94247.94;;;29.94;26.73
19783;BME280;10051;40.294;-3.754;2023-08-24T07:55:15;94245.44;;;30.18;26.39
19783;BME280;10051;40.294;-3.754;2023-08-24T07:57:45;94238.72;;;29.88;26.38
19783;BME280;10051;40.294;-3.754;2023-08-24T08:00:14;94229.34;;;30.00;26.44
19783;BME280;10051;40.294;-3.754;2023-08-24T08:02:41;94247.66;;;30.27;25.95
19783;BME280;10051;40.294;-3.754;2023-08-24T08:05:07;94240.69;;;30.26;26.54
19783;BME280;10051;40.294;-3.754;2023-08-24T08:07:41;94255.91;;;30.51;25.68
19783;BME280;10051;40.294;-3.754;2023-08-24T08:10:10;94262.13;;;30.51;26.38
19783;BME280;10051;40.294;-3.754;2023-08-24T08:12:36;94245.81;;;30.17;25.10
19783;BME280;10051;40.294;-3.754;2023-08-24T08:15:02;94263.44;;;30.36;25.36
19783;BME280;10051;40.294;-3.754;2023-08-24T08:17:28;94260.94;;;30.52;25.87
19783;BME280;10051;40.294;-3.754;2023-08-24T08:19:56;94247.31;;;30.60;24.20
19783;BME280;10051;40.294;-3.754;2023-08-24T08:22:22;94270.34;;;30.79;24.72
19783;BME280;10051;40.294;-3.754;2023-08-24T08:24:54;94265.41;;;30.70;24.67
19783;BME280;10051;40.294;-3.754;2023-08-24T08:27:22;94250.78;;;30.64;24.98
19783;BME280;10051;40.294;-3.754;2023-08-24T08:29:50;94253.28;;;30.78;24.65
19783;BME280;10051;40.294;-3.754;2023-08-24T08:32:16;94257.19;;;30.77;24.69
19783;BME280;10051;40.294;-3.754;2023-08-24T08:34:51;94257.53;;;30.79;24.71
19783;BME280;10051;40.294;-3.754;2023-08-24T08:37:24;94250.13;;;30.83;24.79
19783;BME280;10051;40.294;-3.754;2023-08-24T08:39:52;94229.59;;;30.82;24.93
19783;BME280;10051;40.294;-3.754;2023-08-24T08:42:25;94259.75;;;31.19;25.27
19783;BME280;10051;40.294;-3.754;2023-08-24T08:44:53;94256.34;;;31.11;24.36
19783;BME280;10051;40.294;-3.754;2023-08-24T08:47:31;94256.06;;;31.33;23.66
19783;BME280;10051;40.294;-3.754;2023-08-24T08:50:02;94241.44;;;31.51;24.13
19783;BME280;10051;40.294;-3.754;2023-08-24T08:52:34;94245.25;;;31.57;24.86
19783;BME280;10051;40.294;-3.754;2023-08-24T08:55:04;94245.09;;;31.64;24.13
19783;BME280;10051;40.294;-3.754;2023-08-24T08:57:32;94242.19;;;31.79;23.72
19783;BME280;10051;40.294;-3.754;2023-08-24T09:00:06;94241.34;;;31.82;24.59
19783;BME280;10051;40.294;-3.754;2023-08-24T09:02:39;94250.59;;;32.08;23.59
19783;BME280;10051;40.294;-3.754;2023-08-24T09:05:08;94254.94;;;32.26;23.59
19783;BME280;10051;40.294;-3.754;2023-08-24T09:07:35;94252.66;;;32.24;23.69
19783;BME280;10051;40.294;-3.754;2023-08-24T09:10:03;94248.69;;;32.49;23.93
19783;BME280;10051;40.294;-3.754;2023-08-24T09:12:33;94254.22;;;32.45;23.40
19783;BME280;10051;40.294;-3.754;2023-08-24T09:15:07;94254.84;;;32.53;22.34
19783;BME280;10051;40.294;-3.754;2023-08-24T09:17:42;94249.34;;;32.57;23.00
19783;BME280;10051;40.294;-3.754;2023-08-24T09:21:07;94258.25;;;32.57;23.47
19783;BME280;10051;40.294;-3.754;2023-08-24T09:23:52;94263.47;;;32.68;22.53
19783;BME280;10051;40.294;-3.754;2023-08-24T09:26:32;94234.81;;;32.63;22.99
19783;BME280;10051;40.294;-3.754;2023-08-24T09:29:19;94259.25;;;32.87;22.47
19783;BME280;10051;40.294;-3.754;2023-08-24T09:31:51;94264.38;;;33.02;22.87
19783;BME280;10051;40.294;-3.754;2023-08-24T09:34:24;94265.81;;;33.27;22.53
19783;BME280;10051;40.294;-3.754;2023-08-24T09:36:57;94254.06;;;33.30;21.70
19783;BME280;10051;40.294;-3.754;2023-08-24T09:39:24;94262.00;;;33.41;21.78
19783;BME280;10051;40.294;-3.754;2023-08-24T09:41:50;94262.44;;;33.56;22.14
19783;BME280;10051;40.294;-3.754;2023-08-24T09:44:17;94259.00;;;33.85;21.00
19783;BME280;10051;40.294;-3.754;2023-08-24T09:46:44;94255.19;;;33.99;20.52
19783;BME280;10051;40.294;-3.754;2023-08-24T09:49:12;94253.88;;;34.20;20.50
19783;BME280;10051;40.294;-3.754;2023-08-24T09:51:39;94251.34;;;34.13;20.21
19783;BME280;10051;40.294;-3.754;2023-08-24T09:54:07;94257.13;;;34.15;20.03
19783;BME280;10051;40.294;-3.754;2023-08-24T09:56:39;94238.75;;;34.02;20.31
19783;BME280;10051;40.294;-3.754;2023-08-24T09:59:17;94246.41;;;34.07;20.25
19783;BME280;10051;40.294;-3.754;2023-08-24T10:01:51;94245.53;;;34.10;20.81
19783;BME280;10051;40.294;-3.754;2023-08-24T10:04:24;94224.75;;;34.00;19.86
19783;BME280;10051;40.294;-3.754;2023-08-24T10:06:55;94232.81;;;34.20;19.89
19783;BME280;10051;40.294;-3.754;2023-08-24T10:09:31;94230.31;;;34.26;20.78
19783;BME280;10051;40.294;-3.754;2023-08-24T10:12:05;94213.00;;;34.03;20.66
19783;BME280;10051;40.294;-3.754;2023-08-24T10:14:41;94238.16;;;34.24;20.79
19783;BME280;10051;40.294;-3.754;2023-08-24T10:17:23;94228.50;;;34.36;20.75
19783;BME280;10051;40.294;-3.754;2023-08-24T10:19:52;94232.19;;;34.59;20.67
19783;BME280;10051;40.294;-3.754;2023-08-24T10:22:28;94235.38;;;34.83;19.86
19783;BME280;10051;40.294;-3.754;2023-08-24T10:24:55;94228.53;;;34.91;19.53
19783;BME280;10051;40.294;-3.754;2023-08-24T10:27:26;94240.91;;;35.22;18.72
19783;BME280;10051;40.294;-3.754;2023-08-24T10:29:53;94231.41;;;35.26;18.68
19783;BME280;10051;40.294;-3.754;2023-08-24T10:32:26;94212.41;;;35.10;19.80
19783;BME280;10051;40.294;-3.754;2023-08-24T10:34:53;94236.53;;;34.98;19.41
19783;BME280;10051;40.294;-3.754;2023-08-24T10:37:28;94228.53;;;34.91;18.84
19783;BME280;10051;40.294;-3.754;2023-08-24T10:39:56;94240.88;;;34.96;19.19
19783;BME280;10051;40.294;-3.754;2023-08-24T10:42:26;94218.75;;;35.07;18.93
19783;BME280;10051;40.294;-3.754;2023-08-24T10:44:52;94233.06;;;35.24;19.42
19783;BME280;10051;40.294;-3.754;2023-08-24T10:47:21;94231.50;;;35.36;19.45
19783;BME280;10051;40.294;-3.754;2023-08-24T10:49:58;94237.63;;;35.53;19.02
19783;BME280;10051;40.294;-3.754;2023-08-24T10:52:43;94235.69;;;35.53;18.90
19783;BME280;10051;40.294;-3.754;2023-08-24T10:55:26;94231.47;;;35.75;18.45
19783;BME280;10051;40.294;-3.754;2023-08-24T10:57:59;94232.66;;;35.86;18.23
19783;BME280;10051;40.294;-3.754;2023-08-24T11:00:28;94226.53;;;35.82;18.46
19783;BME280;10051;40.294;-3.754;2023-08-24T11:03:00;94228.06;;;35.83;17.98
19783;BME280;10051;40.294;-3.754;2023-08-24T11:05:32;94225.22;;;35.74;18.36
19783;BME280;10051;40.294;-3.754;2023-08-24T11:08:03;94218.25;;;35.73;18.70
19783;BME280;10051;40.294;-3.754;2023-08-24T11:13:17;94205.72;;;35.98;18.36
19783;BME280;10051;40.294;-3.754;2023-08-24T11:15:52;94206.75;;;36.13;17.43
19783;BME280;10051;40.294;-3.754;2023-08-24T11:18:25;94213.88;;;36.33;17.58
19783;BME280;10051;40.294;-3.754;2023-08-24T11:21:04;94208.09;;;36.31;17.83
19783;BME280;10051;40.294;-3.754;2023-08-24T11:23:31;94182.38;;;36.28;17.45
19783;BME280;10051;40.294;-3.754;2023-08-24T11:26:02;94199.69;;;36.47;17.23
19783;BME280;10051;40.294;-3.754;2023-08-24T11:28:30;94200.06;;;36.59;17.62
19783;BME280;10051;40.294;-3.754;2023-08-24T11:30:57;94195.88;;;36.67;16.73
19783;BME280;10051;40.294;-3.754;2023-08-24T11:33:31;94203.88;;;36.84;17.26
19783;BME280;10051;40.294;-3.754;2023-08-24T11:36:04;94196.56;;;36.81;17.15
19783;BME280;10051;40.294;-3.754;2023-08-24T11:38:40;94184.97;;;36.76;17.49
19783;BME280;10051;40.294;-3.754;2023-08-24T11:41:18;94191.88;;;36.90;16.53
19783;BME280;10051;40.294;-3.754;2023-08-24T11:43:48;94195.13;;;36.98;16.65
19783;BME280;10051;40.294;-3.754;2023-08-24T11:46:18;94189.41;;;37.15;16.87
19783;BME280;10051;40.294;-3.754;2023-08-24T11:48:47;94195.66;;;37.25;16.87
19783;BME280;10051;40.294;-3.754;2023-08-24T11:51:17;94195.81;;;37.21;16.18
19783;BME280;10051;40.294;-3.754;2023-08-24T11:53:45;94181.97;;;37.25;16.57
19783;BME280;10051;40.294;-3.754;2023-08-24T11:56:13;94180.63;;;37.39;16.82
19783;BME280;10051;40.294;-3.754;2023-08-24T11:58:50;94187.81;;;37.55;16.38
19783;BME280;10051;40.294;-3.754;2023-08-24T12:01:22;94160.22;;;37.30;16.49
19783;BME280;10051;40.294;-3.754;2023-08-24T12:03:53;94183.22;;;37.42;16.73
19783;BME280;10051;40.294;-3.754;2023-08-24T12:06:21;94181.28;;;37.52;16.97
19783;BME280;10051;40.294;-3.754;2023-08-24T12:08:47;94173.22;;;37.58;16.42
19783;BME280;10051;40.294;-3.754;2023-08-24T12:11:22;94175.19;;;37.48;16.82
19783;BME280;10051;40.294;-3.754;2023-08-24T12:13:58;94176.56;;;37.62;16.50
19783;BME280;10051;40.294;-3.754;2023-08-24T12:16:27;94153.97;;;37.30;17.02
19783;BME280;10051;40.294;-3.754;2023-08-24T12:18:58;94164.63;;;37.37;16.28
19783;BME280;10051;40.294;-3.754;2023-08-24T12:21:29;94171.22;;;37.49;16.50
19783;BME280;10051;40.294;-3.754;2023-08-24T12:24:04;94163.56;;;37.34;16.51
19783;BME280;10051;40.294;-3.754;2023-08-24T12:29:46;94155.84;;;37.61;16.56
19783;BME280;10051;40.294;-3.754;2023-08-24T12:32:12;94165.47;;;37.84;15.95
19783;BME280;10051;40.294;-3.754;2023-08-24T12:34:38;94149.78;;;38.03;15.86
19783;BME280;10051;40.294;-3.754;2023-08-24T12:37:04;94160.28;;;38.23;14.96
19783;BME280;10051;40.294;-3.754;2023-08-24T12:39:35;94159.97;;;38.31;15.37
19783;BME280;10051;40.294;-3.754;2023-08-24T12:42:03;94165.28;;;38.44;14.94
19783;BME280;10051;40.294;-3.754;2023-08-24T12:44:29;94156.75;;;38.51;14.67
19783;BME280;10051;40.294;-3.754;2023-08-24T12:46:55;94158.56;;;38.54;14.77
19783;BME280;10051;40.294;-3.754;2023-08-24T12:49:23;94153.53;;;38.52;15.00
19783;BME280;10051;40.294;-3.754;2023-08-24T12:51:49;94129.47;;;38.47;14.63
19783;BME280;10051;40.294;-3.754;2023-08-24T12:54:15;94126.09;;;38.52;14.27
19783;BME280;10051;40.294;-3.754;2023-08-24T12:56:40;94152.13;;;38.66;14.41
19783;BME280;10051;40.294;-3.754;2023-08-24T12:59:07;94136.91;;;38.56;14.63
19783;BME280;10051;40.294;-3.754;2023-08-24T13:01:33;94132.19;;;38.57;14.86
19783;BME280;10051;40.294;-3.754;2023-08-24T13:03:58;94149.69;;;38.68;14.71
19783;BME280;10051;40.294;-3.754;2023-08-24T13:06:24;94122.44;;;38.37;15.12
19783;BME280;10051;40.294;-3.754;2023-08-24T13:08:52;94115.75;;;38.29;15.72
19783;BME280;10051;40.294;-3.754;2023-08-24T13:11:18;94142.56;;;38.52;15.18
19783;BME280;10051;40.294;-3.754;2023-08-24T13:13:48;94137.06;;;38.62;15.09
19783;BME280;10051;40.294;-3.754;2023-08-24T13:16:14;94122.38;;;38.65;14.91
19783;BME280;10051;40.294;-3.754;2023-08-24T13:18:42;94102.88;;;38.63;14.77
19783;BME280;10051;40.294;-3.754;2023-08-24T13:21:10;94124.84;;;38.96;14.65
19783;BME280;10051;40.294;-3.754;2023-08-24T13:23:36;94120.28;;;38.93;14.56
19783;BME280;10051;40.294;-3.754;2023-08-24T13:26:02;94118.44;;;39.00;14.85
19783;BME280;10051;40.294;-3.754;2023-08-24T13:28:28;94105.16;;;38.98;14.57
19783;BME280;10051;40.294;-3.754;2023-08-24T13:30:55;94103.66;;;38.97;14.60
19783;BME280;10051;40.294;-3.754;2023-08-24T13:33:20;94060.09;;;38.71;14.51
19783;BME280;10051;40.294;-3.754;2023-08-24T13:35:46;94094.94;;;38.99;14.60
19783;BME280;10051;40.294;-3.754;2023-08-24T13:38:12;94108.81;;;39.04;14.37
19783;BME280;10051;40.294;-3.754;2023-08-24T13:40:38;94082.41;;;38.97;14.22
19783;BME280;10051;40.294;-3.754;2023-08-24T13:43:04;94092.47;;;39.01;14.20
19783;BME280;10051;40.294;-3.754;2023-08-24T13:45:29;94094.41;;;39.09;14.19